Time;durP1;ratioP1;P1;durP2;ratioP2;P2;SDS_P1;SDS_P2;PMS_P1;PMS_P2;Temp;Humidity;BMP_temperature;BMP_pressure;BME280_temperature;BME280_humidity;BME280_pressure;Samples;Min_cycle;Max_cycle;Signal;HPM_P1;HPM_P2
2022/10/04 00:00:30;;;;;;;;;;;;;;;13.00;99.77;101204.84;4937525;29;19966;-78
2022/10/04 00:03:00;;;;;;;;;;;;;;;12.98;99.50;101201.31;4927283;29;19915;-78
2022/10/04 00:05:27;;;;;;;;;;;;;;;12.91;99.97;101205.75;4937230;29;19922;-78
2022/10/04 00:07:55;;;;;;;;;;;;;;;12.89;100.00;101204.00;4937309;29;19933;-78
2022/10/04 00:10:27;;;;;;;;;;;;;;;12.94;100.00;101200.47;4937552;29;19965;-79
2022/10/04 00:13:01;;;;;;;;;;;;;;;12.88;99.88;101199.59;4937811;29;19922;-78
2022/10/04 00:15:30;;;;;;;;;;;;;;;12.88;100.00;101199.59;4937316;29;19919;-78
2022/10/04 00:18:10;;;;;;;;;;;;;;;12.85;100.00;101205.78;4934124;29;19973;-78
2022/10/04 00:20:52;;;;;;;;;;;;;;;12.88;100.00;101210.19;4937437;29;19922;-78
2022/10/04 00:23:23;;;;;;;;;;;;;;;12.83;100.00;101210.19;4949206;28;19914;-78
2022/10/04 00:25:54;;;;;;;;;;;;;;;12.86;100.00;101209.31;4933805;29;20012;-78
2022/10/04 00:28:19;;;;;;;;;;;;;;;12.84;100.00;101206.69;4934418;29;19918;-78
2022/10/04 00:31:05;;;;;;;;;;;;;;;12.83;100.00;101204.91;4938793;29;19915;-78
2022/10/04 00:33:56;;;;;;;;;;;;;;;12.90;100.00;101216.38;4932390;29;19914;-78
2022/10/04 00:36:22;;;;;;;;;;;;;;;12.90;100.00;101216.38;4935372;29;19966;-78
2022/10/04 00:39:07;;;;;;;;;;;;;;;12.93;100.00;101217.22;4937301;29;19914;-78
2022/10/04 00:41:34;;;;;;;;;;;;;;;12.83;100.00;101215.50;4907350;29;20012;-78
2022/10/04 00:44:00;;;;;;;;;;;;;;;12.87;100.00;101224.34;4937331;29;19985;-78
2022/10/04 00:46:27;;;;;;;;;;;;;;;12.85;100.00;101216.38;4936570;29;20358;-78
2022/10/04 00:48:55;;;;;;;;;;;;;;;12.88;100.00;101212.84;4935678;29;19919;-77
2022/10/04 00:51:26;;;;;;;;;;;;;;;12.86;100.00;101209.31;4936694;29;19919;-78
2022/10/04 00:53:56;;;;;;;;;;;;;;;12.85;100.00;101213.72;4936664;29;19918;-78
2022/10/04 00:56:32;;;;;;;;;;;;;;;12.82;100.00;101207.59;4935062;29;20013;-78
2022/10/04 00:59:06;;;;;;;;;;;;;;;12.79;100.00;101202.31;4933915;29;19954;-78
2022/10/04 01:01:34;;;;;;;;;;;;;;;12.85;100.00;101196.97;4936328;29;20301;-78
2022/10/04 01:04:01;;;;;;;;;;;;;;;12.82;100.00;101202.28;4932726;29;19940;-78
2022/10/04 01:06:27;;;;;;;;;;;;;;;12.81;100.00;101205.81;4936032;29;19915;-78
2022/10/04 01:08:54;;;;;;;;;;;;;;;12.75;100.00;101198.75;4936516;29;19919;-78
2022/10/04 01:11:24;;;;;;;;;;;;;;;12.77;100.00;101190.81;4936251;29;19982;-78
2022/10/04 01:13:54;;;;;;;;;;;;;;;12.80;100.00;101193.44;4934840;29;20392;-77
2022/10/04 01:16:32;;;;;;;;;;;;;;;12.81;100.00;101201.41;4936261;29;19922;-78
2022/10/04 01:19:16;;;;;;;;;;;;;;;12.76;100.00;101197.91;4935159;29;19915;-78
2022/10/04 01:21:41;;;;;;;;;;;;;;;12.78;100.00;101195.22;4935997;29;19914;-78
2022/10/04 01:24:07;;;;;;;;;;;;;;;12.75;100.00;101188.16;4936271;29;19915;-78
2022/10/04 01:26:32;;;;;;;;;;;;;;;12.76;100.00;101194.34;4934092;29;19922;-78
2022/10/04 01:28:59;;;;;;;;;;;;;;;12.84;100.00;101189.91;4933549;29;19921;-78
2022/10/04 01:31:25;;;;;;;;;;;;;;;12.79;100.00;101192.56;4935935;29;19958;-78
2022/10/04 01:33:50;;;;;;;;;;;;;;;12.75;100.00;101189.94;4935253;29;20370;-77
2022/10/04 01:36:15;;;;;;;;;;;;;;;12.75;100.00;101195.25;4935254;29;19922;-78
2022/10/04 01:38:41;;;;;;;;;;;;;;;12.77;100.00;101188.19;4935788;29;19918;-78
2022/10/04 01:41:07;;;;;;;;;;;;;;;12.72;100.00;101189.06;4935778;29;19919;-78
2022/10/04 01:43:36;;;;;;;;;;;;;;;12.74;100.00;101193.50;4935635;29;19915;-78
2022/10/04 01:46:07;;;;;;;;;;;;;;;12.71;100.00;101187.31;4935333;29;19929;-78
2022/10/04 01:48:36;;;;;;;;;;;;;;;12.71;100.00;101179.38;4934598;29;19961;-77
2022/10/04 01:51:05;;;;;;;;;;;;;;;12.68;100.00;101189.97;4928039;29;19926;-77
2022/10/04 01:53:34;;;;;;;;;;;;;;;12.74;100.00;101189.06;4935552;29;20439;-77
2022/10/04 01:56:14;;;;;;;;;;;;;;;12.75;99.89;101189.94;5081024;27;19913;-78
2022/10/04 01:58:45;;;;;;;;;;;;;;;12.70;100.00;101185.53;5075308;28;19942;-78
2022/10/04 02:01:14;;;;;;;;;;;;;;;12.74;100.00;101191.72;5078406;28;20390;-78
2022/10/04 02:03:47;;;;;;;;;;;;;;;12.72;100.00;101181.13;5080941;28;20328;-78
2022/10/04 02:06:13;;;;;;;;;;;;;;;12.69;100.00;101191.72;5078009;28;20030;-78
2022/10/04 02:08:40;;;;;;;;;;;;;;;12.70;100.00;101182.88;5077055;28;20114;-78
2022/10/04 02:11:05;;;;;;;;;;;;;;;12.79;99.96;101175.81;5078027;28;20392;-78
2022/10/04 02:13:36;;;;;;;;;;;;;;;12.73;100.00;101176.69;5080381;28;19916;-78
2022/10/04 02:16:02;;;;;;;;;;;;;;;12.76;100.00;101166.13;5073914;28;19928;-78
2022/10/04 02:18:30;;;;;;;;;;;;;;;12.82;99.77;101178.44;5079034;28;19924;-78
2022/10/04 02:20:56;;;;;;;;;;;;;;;12.79;99.47;101176.69;5062438;28;20310;-78
2022/10/04 02:23:23;;;;;;;;;;;;;;;12.84;99.65;101180.19;5072937;28;19924;-78
2022/10/04 02:25:48;;;;;;;;;;;;;;;12.82;99.50;101181.09;5079853;28;20287;-77
2022/10/04 02:28:14;;;;;;;;;;;;;;;12.85;98.80;101183.72;5077146;28;19917;-78
2022/10/04 02:33:37;;;;;;;;;;;;;;;12.86;99.01;101177.53;5078326;28;20004;-78
2022/10/04 02:36:07;;;;;;;;;;;;;;;12.81;99.33;101176.66;5076563;28;20310;-78
2022/10/04 02:38:35;;;;;;;;;;;;;;;12.84;98.79;101174.03;5074530;28;20298;-78
2022/10/04 02:41:00;;;;;;;;;;;;;;;12.80;98.89;101180.22;5076336;28;19979;-78
2022/10/04 02:43:32;;;;;;;;;;;;;;;12.75;99.13;101180.22;5078365;28;20405;-78
2022/10/04 02:46:06;;;;;;;;;;;;;;;12.69;99.97;101174.97;5079095;28;19923;-78
2022/10/04 02:48:46;;;;;;;;;;;;;;;12.68;100.00;101170.53;5074513;28;19932;-78
2022/10/04 02:51:18;;;;;;;;;;;;;;;12.66;99.65;101170.56;5076439;28;19956;-78
2022/10/04 02:54:02;;;;;;;;;;;;;;;12.64;100.00;101161.75;5065217;28;19955;-78
2022/10/04 02:56:27;;;;;;;;;;;;;;;12.62;100.00;101168.81;5092873;28;19916;-78
2022/10/04 02:58:53;;;;;;;;;;;;;;;12.61;100.00;101164.41;5086600;28;19927;-78
2022/10/04 03:01:26;;;;;;;;;;;;;;;12.59;100.00;101168.81;5093191;28;20009;-78
2022/10/04 03:03:52;;;;;;;;;;;;;;;12.55;100.00;101167.09;5085586;28;19959;-78
2022/10/04 03:06:18;;;;;;;;;;;;;;;12.57;100.00;101161.78;5072386;28;20300;-77
2022/10/04 03:08:44;;;;;;;;;;;;;;;12.57;100.00;101159.13;5070900;28;19922;-77
2022/10/04 03:11:10;;;;;;;;;;;;;;;12.53;100.00;101163.56;5076568;28;19963;-77
2022/10/04 03:13:36;;;;;;;;;;;;;;;12.49;100.00;101169.75;5071025;28;20297;-78
2022/10/04 03:16:02;;;;;;;;;;;;;;;12.46;100.00;101167.13;5077348;28;19927;-77
2022/10/04 03:18:28;;;;;;;;;;;;;;;12.52;100.00;101180.31;5078774;28;19916;-77
2022/10/04 03:20:54;;;;;;;;;;;;;;;12.49;100.00;101173.25;5085732;28;19920;-77
2022/10/04 03:23:20;;;;;;;;;;;;;;;12.49;100.00;101164.44;5079708;28;20019;-78
2022/10/04 03:25:51;;;;;;;;;;;;;;;12.45;100.00;101168.00;5083848;28;19985;-77
2022/10/04 03:28:16;;;;;;;;;;;;;;;12.51;100.00;101167.97;5085243;28;19922;-78
2022/10/04 03:30:45;;;;;;;;;;;;;;;12.47;100.00;101167.13;5075216;28;20003;-78
2022/10/04 03:33:18;;;;;;;;;;;;;;;12.50;100.00;101163.59;5084971;28;19920;-78
2022/10/04 03:35:44;;;;;;;;;;;;;;;12.49;100.00;101157.38;5084386;28;19920;-77
2022/10/04 03:38:11;;;;;;;;;;;;;;;12.52;100.00;101160.91;5078682;28;20011;-77
2022/10/04 03:40:40;;;;;;;;;;;;;;;12.52;100.00;101160.91;5085664;28;19916;-78
2022/10/04 03:43:11;;;;;;;;;;;;;;;12.46;100.00;101161.81;5077507;28;20006;-78
2022/10/04 03:45:37;;;;;;;;;;;;;;;12.48;100.00;101158.28;5083977;28;20358;-78
2022/10/04 03:48:05;;;;;;;;;;;;;;;12.45;100.00;101165.38;5081052;28;19920;-77
2022/10/04 03:50:33;;;;;;;;;;;;;;;12.41;100.00;101167.13;5078379;28;19920;-77
2022/10/04 03:53:14;;;;;;;;;;;;;;;12.28;100.00;101163.63;5084323;28;19968;-78
2022/10/04 03:55:44;;;;;;;;;;;;;;;12.17;100.00;101165.44;5076951;28;19955;-78
2022/10/04 03:58:11;;;;;;;;;;;;;;;12.06;100.00;101164.59;5082852;28;19916;-78
2022/10/04 04:00:38;;;;;;;;;;;;;;;12.07;100.00;101176.91;5080499;28;19917;-78
2022/10/04 04:03:07;;;;;;;;;;;;;;;12.03;100.00;101167.25;5080879;28;19951;-78
2022/10/04 04:05:35;;;;;;;;;;;;;;;11.98;100.00;101175.19;5077592;28;20416;-78
2022/10/04 04:08:16;;;;;;;;;;;;;;;11.96;100.00;101176.94;5080800;28;19913;-78
2022/10/04 04:11:01;;;;;;;;;;;;;;;11.97;100.00;101177.81;5084807;28;19916;-77
2022/10/04 04:13:36;;;;;;;;;;;;;;;11.99;100.00;101176.06;5083534;28;19923;-77
2022/10/04 04:16:02;;;;;;;;;;;;;;;12.01;100.00;101182.25;5077985;28;19920;-77
2022/10/04 04:18:32;;;;;;;;;;;;;;;12.04;100.00;101184.88;5082293;28;19923;-78
2022/10/04 04:21:00;;;;;;;;;;;;;;;12.15;100.00;101184.84;5081829;28;19962;-78
2022/10/04 04:23:27;;;;;;;;;;;;;;;12.18;100.00;101171.59;5085073;28;20301;-77
2022/10/04 04:25:54;;;;;;;;;;;;;;;12.19;100.00;101176.91;5070813;28;19931;-77
2022/10/04 04:28:28;;;;;;;;;;;;;;;12.21;100.00;101185.72;5080564;28;20336;-78
2022/10/04 04:30:58;;;;;;;;;;;;;;;12.30;100.00;101183.94;5085046;28;20010;-77
2022/10/04 04:33:28;;;;;;;;;;;;;;;12.38;100.00;101179.50;5079956;28;19916;-79
2022/10/04 04:35:55;;;;;;;;;;;;;;;12.38;100.00;101184.78;5079541;28;19932;-78
2022/10/04 04:38:22;;;;;;;;;;;;;;;12.37;100.00;101180.41;5076769;28;19917;-78
2022/10/04 04:40:48;;;;;;;;;;;;;;;12.35;100.00;101182.16;5078253;28;19924;-78
2022/10/04 04:43:18;;;;;;;;;;;;;;;12.37;100.00;101183.03;5081270;28;19916;-78
2022/10/04 04:45:44;;;;;;;;;;;;;;;12.41;100.00;101179.47;5081187;28;20347;-78
2022/10/04 04:48:13;;;;;;;;;;;;;;;12.36;100.00;101189.22;5079120;28;19916;-78
2022/10/04 04:50:39;;;;;;;;;;;;;;;12.46;100.00;101189.16;5079394;28;19916;-78
2022/10/04 04:53:13;;;;;;;;;;;;;;;12.48;100.00;101181.22;5077717;28;19917;-78
2022/10/04 04:55:43;;;;;;;;;;;;;;;12.50;100.00;101180.34;5076892;28;19925;-78
2022/10/04 04:58:13;;;;;;;;;;;;;;;12.52;100.00;101185.59;5077322;28;20306;-78
2022/10/04 05:00:40;;;;;;;;;;;;;;;12.55;100.00;101182.97;5080221;28;19920;-78
2022/10/04 05:03:14;;;;;;;;;;;;;;;12.62;100.00;101182.03;5074207;28;19924;-78
2022/10/04 05:05:43;;;;;;;;;;;;;;;12.61;100.00;101188.25;5069786;28;19969;-78
2022/10/04 05:08:13;;;;;;;;;;;;;;;12.65;100.00;101187.34;5075044;28;19969;-78
2022/10/04 05:10:44;;;;;;;;;;;;;;;12.66;99.19;101181.16;5079241;28;20302;-78
2022/10/04 05:13:10;;;;;;;;;;;;;;;12.59;99.72;101191.78;5079709;28;20303;-78
2022/10/04 05:15:36;;;;;;;;;;;;;;;12.56;99.69;101195.31;5081653;28;20064;-78
2022/10/04 05:18:12;;;;;;;;;;;;;;;12.47;100.00;101196.25;5079074;28;19913;-78
2022/10/04 05:20:38;;;;;;;;;;;;;;;12.44;99.97;101208.59;5079429;28;19917;-78
2022/10/04 05:23:03;;;;;;;;;;;;;;;12.46;99.71;101209.47;5075511;28;20010;-78
2022/10/04 05:25:31;;;;;;;;;;;;;;;12.38;99.31;101201.56;5078370;28;19970;-78
2022/10/04 05:27:56;;;;;;;;;;;;;;;12.37;98.78;101204.22;5074317;28;19943;-78
2022/10/04 05:30:36;;;;;;;;;;;;;;;12.28;99.74;101205.09;5081288;28;19920;-78
2022/10/04 05:33:13;;;;;;;;;;;;;;;12.22;99.83;101203.34;5080213;28;19916;-77
2022/10/04 05:35:41;;;;;;;;;;;;;;;12.26;100.00;101206.88;5071545;28;19924;-78
2022/10/04 05:38:15;;;;;;;;;;;;;;;12.26;99.47;101217.44;5077736;28;19923;-78
2022/10/04 05:41:06;;;;;;;;;;;;;;;12.27;99.37;101214.81;5078420;28;19916;-78
2022/10/04 05:43:35;;;;;;;;;;;;;;;12.26;98.53;101217.44;5078786;28;20389;-78
2022/10/04 05:46:17;;;;;;;;;;;;;;;12.26;98.31;101218.34;5079500;28;20286;-78
2022/10/04 05:48:44;;;;;;;;;;;;;;;12.24;97.82;101214.81;5076953;28;19973;-78
2022/10/04 05:51:28;;;;;;;;;;;;;;;12.24;98.04;101211.31;5077929;28;19929;-78
2022/10/04 05:53:56;;;;;;;;;;;;;;;12.24;97.77;101217.47;5075430;28;19917;-78
2022/10/04 05:56:47;;;;;;;;;;;;;;;12.23;96.92;101218.34;5077999;28;20054;-78
2022/10/04 05:59:25;;;;;;;;;;;;;;;12.22;97.59;101235.13;5079740;28;19977;-78
2022/10/04 06:01:53;;;;;;;;;;;;;;;12.24;96.97;101222.78;5077941;28;19923;-78
2022/10/04 06:04:27;;;;;;;;;;;;;;;12.18;96.27;101225.44;5081408;28;19919;-79
2022/10/04 06:07:11;;;;;;;;;;;;;;;12.18;97.00;101229.81;5081556;28;20554;-78
2022/10/04 06:09:42;;;;;;;;;;;;;;;12.17;96.68;101223.66;5079928;28;19920;-78
2022/10/04 06:12:12;;;;;;;;;;;;;;;12.20;96.70;101228.94;5076659;28;19916;-78
2022/10/04 06:14:57;;;;;;;;;;;;;;;12.26;96.56;101225.38;5081523;28;19930;-78
2022/10/04 06:17:35;;;;;;;;;;;;;;;12.33;96.09;101224.50;5072811;28;19923;-79
2022/10/04 06:20:00;;;;;;;;;;;;;;;12.37;95.64;101230.69;5079643;28;20011;-77
2022/10/04 06:22:25;;;;;;;;;;;;;;;12.37;94.84;101230.69;5075797;28;20007;-78
2022/10/04 06:24:57;;;;;;;;;;;;;;;12.36;94.83;101234.19;5081208;28;19916;-78
2022/10/04 06:27:30;;;;;;;;;;;;;;;12.38;95.13;101238.59;5081355;28;19917;-77
2022/10/04 06:30:05;;;;;;;;;;;;;;;12.42;94.21;101236.84;5078421;28;19920;-78
2022/10/04 06:32:49;;;;;;;;;;;;;;;12.37;93.66;101236.00;5079062;28;19995;-78
2022/10/04 06:35:34;;;;;;;;;;;;;;;12.34;94.64;101236.88;5079199;28;19956;-78
2022/10/04 06:38:10;;;;;;;;;;;;;;;12.43;94.90;101235.97;5072410;28;20037;-78
2022/10/04 06:40:42;;;;;;;;;;;;;;;12.55;94.06;101241.22;5082051;28;20011;-78
2022/10/04 06:43:13;;;;;;;;;;;;;;;12.52;93.43;101249.16;5079547;28;19916;-78
2022/10/04 06:45:45;;;;;;;;;;;;;;;12.45;93.40;101244.78;5080828;28;20023;-78
2022/10/04 06:48:11;;;;;;;;;;;;;;;12.44;93.43;101258.88;5069462;28;20329;-78
2022/10/04 06:50:42;;;;;;;;;;;;;;;12.45;92.69;101255.38;5071289;28;20374;-78
2022/10/04 06:53:16;;;;;;;;;;;;;;;12.52;92.16;101251.81;5071380;28;19920;-78
2022/10/04 06:55:50;;;;;;;;;;;;;;;12.56;92.24;101264.16;5081630;28;19978;-78
2022/10/04 06:58:24;;;;;;;;;;;;;;;12.56;92.31;101260.63;5075197;28;20302;-77
2022/10/04 07:00:55;;;;;;;;;;;;;;;12.65;91.69;101255.31;5064279;28;19917;-76
2022/10/04 07:03:25;;;;;;;;;;;;;;;12.76;91.50;101249.97;5066731;28;19916;-78
2022/10/04 07:05:56;;;;;;;;;;;;;;;12.98;90.41;101256.94;5070501;28;19981;-78
2022/10/04 07:08:35;;;;;;;;;;;;;;;13.10;89.39;101250.72;5068623;28;19924;-78
2022/10/04 07:11:20;;;;;;;;;;;;;;;13.19;87.77;101258.63;5069665;28;19966;-78
2022/10/04 07:13:46;;;;;;;;;;;;;;;13.25;86.84;101268.31;5080796;28;19944;-78
2022/10/04 07:16:26;;;;;;;;;;;;;;;13.26;87.43;101268.34;5083225;28;19963;-78
2022/10/04 07:18:54;;;;;;;;;;;;;;;13.28;86.48;101274.53;5078352;28;19923;-78
2022/10/04 07:21:20;;;;;;;;;;;;;;;13.32;86.31;101273.59;5079654;28;20385;-78
2022/10/04 07:23:57;;;;;;;;;;;;;;;13.40;86.72;101270.03;5082911;28;19924;-78
2022/10/04 07:26:27;;;;;;;;;;;;;;;13.46;86.38;101270.84;5071345;28;20003;-78
2022/10/04 07:31:37;;;;;;;;;;;;;;;13.76;85.43;101264.47;5079653;28;19916;-78
2022/10/04 07:34:10;;;;;;;;;;;;;;;13.76;84.58;101268.91;5081298;28;20010;-78
2022/10/04 07:36:39;;;;;;;;;;;;;;;13.79;84.57;101267.09;5079924;28;20006;-78
2022/10/04 07:39:08;;;;;;;;;;;;;;;13.83;84.41;101270.59;5075859;28;19916;-78
2022/10/04 07:41:38;;;;;;;;;;;;;;;13.71;84.25;101265.41;5068180;28;19920;-78
2022/10/04 07:44:26;;;;;;;;;;;;;;;13.70;84.51;101276.88;5072993;28;19916;-78
2022/10/04 07:46:55;;;;;;;;;;;;;;;13.66;85.37;101273.38;5073575;28;19955;-78
2022/10/04 07:49:21;;;;;;;;;;;;;;;13.77;85.53;101281.25;5074562;28;19915;-78
2022/10/04 07:52:04;;;;;;;;;;;;;;;13.76;84.50;101285.69;5083983;28;19961;-78
2022/10/04 07:54:46;;;;;;;;;;;;;;;13.79;84.69;101284.78;5078368;28;19924;-78
2022/10/04 07:57:32;;;;;;;;;;;;;;;13.93;83.80;101282.91;5077732;28;19916;-78
2022/10/04 08:00:16;;;;;;;;;;;;;;;13.93;83.72;101282.91;5079816;28;19924;-78
2022/10/04 08:02:44;;;;;;;;;;;;;;;13.87;84.35;101282.97;5083724;28;19916;-78
2022/10/04 08:05:32;;;;;;;;;;;;;;;13.90;83.07;101290.88;5075501;28;20013;-78
2022/10/04 08:08:12;;;;;;;;;;;;;;;14.04;83.44;101288.13;5079876;28;19916;-78
2022/10/04 08:10:49;;;;;;;;;;;;;;;14.11;83.61;101288.97;5083273;28;19923;-78
2022/10/04 08:13:26;;;;;;;;;;;;;;;14.23;82.43;101291.50;5084170;28;19927;-78
2022/10/04 08:15:57;;;;;;;;;;;;;;;14.34;82.07;101294.06;5078736;28;19974;-78
2022/10/04 08:18:34;;;;;;;;;;;;;;;14.29;81.15;101291.44;5085146;28;19923;-78
2022/10/04 08:21:05;;;;;;;;;;;;;;;14.23;82.45;101296.81;5077672;28;19920;-78
2022/10/04 08:23:43;;;;;;;;;;;;;;;14.20;82.34;101297.72;5079497;28;20386;-78
2022/10/04 08:26:27;;;;;;;;;;;;;;;14.24;82.17;101298.56;5078613;28;19954;-78
2022/10/04 08:32:05;;;;;;;;;;;;;;;14.45;80.97;101298.38;5077474;28;20029;-78
2022/10/04 08:34:45;;;;;;;;;;;;;;;14.37;81.46;101302.88;5081146;28;19931;-78
2022/10/04 08:37:16;;;;;;;;;;;;;;;14.41;81.64;101304.63;5080744;28;19956;-78
2022/10/04 08:39:44;;;;;;;;;;;;;;;14.57;80.78;101307.16;5078916;28;19920;-78
2022/10/04 08:42:26;;;;;;;;;;;;;;;14.66;80.53;101305.25;5081221;28;19942;-78
2022/10/04 08:45:19;;;;;;;;;;;;;;;14.86;80.52;101305.06;5080110;28;19920;-78
2022/10/04 08:48:05;;;;;;;;;;;;;;;14.93;78.94;101304.97;5092668;28;19923;-78
2022/10/04 08:50:45;;;;;;;;;;;;;;;14.99;78.26;101313.78;5082287;28;19917;-78
2022/10/04 08:53:28;;;;;;;;;;;;;;;14.96;77.77;101310.25;5078699;28;20443;-78
2022/10/04 08:56:05;;;;;;;;;;;;;;;15.15;77.16;101306.47;5075644;28;19928;-78
2022/10/04 08:58:33;;;;;;;;;;;;;;;15.14;76.03;101307.38;5083323;28;19931;-78
2022/10/04 09:01:17;;;;;;;;;;;;;;;15.13;75.55;101313.59;5060050;28;20514;-78
2022/10/04 09:04:14;;;;;;;;;;;;;;;15.23;75.15;101307.25;5082861;28;20511;-78
2022/10/04 09:06:48;;;;;;;;;;;;;;;15.40;74.94;101306.16;5077776;28;20034;-78
2022/10/04 09:09:16;;;;;;;;;;;;;;;15.51;74.26;101304.22;5079821;28;19923;-78
2022/10/04 09:11:49;;;;;;;;;;;;;;;15.43;74.46;101306.09;5078897;28;20417;-78
2022/10/04 09:14:30;;;;;;;;;;;;;;;15.51;74.43;101304.22;5082828;28;19931;-77
2022/10/04 09:16:55;;;;;;;;;;;;;;;15.61;74.44;101305.84;5079756;28;19921;-78
2022/10/04 09:19:20;;;;;;;;;;;;;;;15.68;75.33;101312.84;5083053;28;19923;-78
2022/10/04 09:21:46;;;;;;;;;;;;;;;15.74;74.11;101312.75;5081190;28;19916;-78
2022/10/04 09:24:26;;;;;;;;;;;;;;;15.68;74.25;101315.50;5082085;28;19924;-78
2022/10/04 09:27:00;;;;;;;;;;;;;;;15.72;73.48;101314.59;5085484;28;20450;-78
2022/10/04 09:29:43;;;;;;;;;;;;;;;15.75;74.47;101313.69;5070783;28;19924;-78
2022/10/04 09:32:18;;;;;;;;;;;;;;;15.67;74.20;101323.53;5077328;28;19969;-78
2022/10/04 09:35:05;;;;;;;;;;;;;;;15.52;75.06;101317.50;5070113;28;19921;-78
2022/10/04 09:37:49;;;;;;;;;;;;;;;15.77;74.94;101323.41;5069098;28;19917;-77
2022/10/04 09:40:14;;;;;;;;;;;;;;;15.89;74.19;101319.66;5078936;28;19961;-78
2022/10/04 09:42:55;;;;;;;;;;;;;;;16.01;72.56;101315.94;5082883;28;19916;-78
2022/10/04 09:45:20;;;;;;;;;;;;;;;16.18;73.72;101318.31;5075101;28;20448;-79
2022/10/04 09:48:05;;;;;;;;;;;;;;;16.32;73.21;101313.63;5079183;28;19924;-78
2022/10/04 09:50:38;;;;;;;;;;;;;;;16.54;71.15;101305.25;5079385;28;20024;-78
2022/10/04 09:53:22;;;;;;;;;;;;;;;16.70;71.77;101300.50;5079009;28;19948;-78
2022/10/04 09:55:57;;;;;;;;;;;;;;;16.69;70.47;101315.63;5080492;28;19935;-78
2022/10/04 09:58:50;;;;;;;;;;;;;;;16.67;69.92;101312.09;5076772;28;19970;-78
2022/10/04 10:01:32;;;;;;;;;;;;;;;16.71;69.78;101308.47;5049142;28;19916;-78
2022/10/04 10:04:24;;;;;;;;;;;;;;;16.75;69.35;101311.97;5082898;28;19963;-78
2022/10/04 10:06:56;;;;;;;;;;;;;;;16.70;69.92;101314.72;5086999;28;19924;-79
2022/10/04 10:15:26;;;;;;;;;;;;;;;17.10;69.08;101300.59;5079761;28;20416;-76
2022/10/04 10:20:50;;;;;;;8.05;6.85;;;;;;;17.55;66.98;101312.97;5083193;28;20671;-75
2022/10/04 10:23:25;;;;;;;10.25;6.50;;;;;;;17.32;66.78;101298.38;5070376;28;20042;-75
2022/10/04 10:26:13;;;;;;;9.52;7.13;;;;;;;17.39;66.80;101291.97;5079839;28;20577;-76
2022/10/04 10:29:14;;;;;;;8.43;6.43;;;;;;;17.11;65.36;101304.16;5045639;28;20128;-75
2022/10/04 10:31:50;;;;;;;6.22;5.63;;;;;;;16.95;66.69;101293.81;5059072;28;20494;-75
2022/10/04 10:34:46;;;;;;;8.00;5.63;;;;;;;16.78;67.69;101294.16;5054219;28;20468;-75
2022/10/04 10:37:34;;;;;;;8.00;5.03;;;;;;;16.73;68.57;101296.00;5048167;28;20029;-76
2022/10/04 10:40:33;;;;;;;6.47;5.88;;;;;;;16.83;67.36;101286.06;5053290;28;20037;-75
2022/10/04 10:43:24;;;;;;;9.30;5.95;;;;;;;16.44;67.83;101288.53;5023260;28;20041;-75
2022/10/04 10:46:19;;;;;;;9.25;5.95;;;;;;;16.38;68.71;101286.00;5059044;28;20410;-76
2022/10/04 10:49:09;;;;;;;8.25;5.70;;;;;;;16.42;67.99;101283.22;5064772;28;20067;-75
2022/10/04 10:52:16;;;;;;;8.27;5.90;;;;;;;16.58;68.70;101281.19;5057319;28;20037;-75
2022/10/04 10:55:30;;;;;;;7.13;6.43;;;;;;;16.92;66.67;101291.19;5059233;28;20045;-76
2022/10/04 10:58:45;;;;;;;11.93;6.20;;;;;;;17.24;65.43;101287.00;5060165;28;20562;-77
2022/10/04 11:01:37;;;;;;;9.98;6.15;;;;;;;17.45;64.38;101285.66;5052655;28;20044;-75
2022/10/04 11:04:34;;;;;;;9.50;5.20;;;;;;;17.31;63.89;101283.25;5039184;28;20042;-75
2022/10/04 11:07:54;;;;;;;7.32;5.78;;;;;;;17.13;64.00;101283.66;5058957;28;20029;-75
2022/10/04 11:11:04;;;;;;;8.48;6.35;;;;;;;17.55;63.73;101281.81;5066697;28;20036;-75
2022/10/04 11:14:10;;;;;;;9.38;7.35;;;;;;;18.12;61.22;101284.03;5058251;28;20028;-75
2022/10/04 11:17:26;;;;;;;8.13;7.15;;;;;;;18.35;60.52;101271.88;5054845;28;20094;-75
2022/10/04 11:20:23;;;;;;;7.78;6.65;;;;;;;18.55;58.62;101277.56;5033880;28;20530;-75
2022/10/04 11:22:54;;;;;;;9.13;6.70;;;;;;;18.46;59.54;101274.25;5053744;28;20036;-75
2022/10/04 11:26:07;;;;;;;8.30;5.60;;;;;;;18.54;58.83;101281.16;5052936;28;20095;-75
2022/10/04 11:29:09;;;;;;;11.63;6.00;;;;;;;18.46;58.56;101276.94;5056267;28;20328;-75
2022/10/04 11:31:56;;;;;;;7.45;6.35;;;;;;;18.25;59.82;101278.38;5020052;28;20088;-75
2022/10/04 11:34:58;;;;;;;7.65;5.75;;;;;;;18.14;59.66;101276.88;5041389;28;20390;-75
2022/10/04 11:37:59;;;;;;;6.70;6.10;;;;;;;17.98;60.06;101279.97;5059260;28;20147;-75
2022/10/04 11:40:51;;;;;;;8.10;7.30;;;;;;;18.32;60.27;101275.50;5038361;28;20034;-75
2022/10/04 11:43:45;;;;;;;9.52;8.75;;;;;;;18.35;59.60;101280.78;5034780;28;20107;-75
2022/10/04 11:46:45;;;;;;;8.30;6.05;;;;;;;18.00;60.24;101262.09;5038106;28;20040;-75
2022/10/04 11:49:41;;;;;;;11.45;6.32;;;;;;;18.09;60.60;101267.22;5034327;28;20100;-75
2022/10/04 11:52:18;;;;;;;7.80;6.43;;;;;;;18.20;60.34;101265.13;5042937;28;20068;-75
2022/10/04 11:55:20;;;;;;;8.48;6.03;;;;;;;18.12;60.86;101257.31;5043322;28;20044;-75
2022/10/04 11:58:00;;;;;;;7.78;7.03;;;;;;;18.24;60.67;101260.63;5044501;28;20028;-75
2022/10/04 12:00:53;;;;;;;8.27;6.65;;;;;;;18.28;60.50;101257.78;5044021;28;20403;-75
2022/10/04 12:03:41;;;;;;;10.95;6.72;;;;;;;18.37;60.27;101257.56;5042979;28;20094;-75
2022/10/04 12:06:36;;;;;;;6.65;6.05;;;;;;;18.34;60.51;101254.97;5042549;28;20053;-75
2022/10/04 12:09:08;;;;;;;8.15;6.10;;;;;;;18.44;60.35;101252.91;5039133;28;20159;-75
2022/10/04 12:15:04;;;;;;;8.38;6.35;;;;;;;18.16;60.54;101248.31;5039571;28;20099;-75
2022/10/04 12:18:16;;;;;;;9.50;8.32;;;;;;;18.66;59.59;101241.66;5042056;28;20113;-75
2022/10/04 12:21:03;;;;;;;7.32;6.15;;;;;;;19.08;58.75;101244.91;5042038;28;20466;-75
2022/10/04 12:23:58;;;;;;;6.38;5.78;;;;;;;19.08;58.54;101239.53;5041093;28;20543;-75
2022/10/04 12:26:59;;;;;;;10.93;6.75;;;;;;;19.09;58.39;101230.59;5041529;28;20033;-75
2022/10/04 12:29:44;;;;;;;7.82;7.07;;;;;;;19.45;57.25;101230.38;5034288;28;20057;-75
2022/10/04 12:32:18;;;;;;;8.15;7.50;;;;;;;19.81;57.31;101224.78;5035479;28;20072;-75
2022/10/04 12:35:04;;;;;;;11.40;6.05;;;;;;;19.88;56.67;101231.66;5044277;28;20442;-75
2022/10/04 12:37:38;;;;;;;6.30;5.68;;;;;;;19.10;57.48;101232.34;5039732;28;20037;-75
2022/10/04 12:40:23;;;;;;;9.18;8.38;;;;;;;19.02;58.36;101235.25;5038813;28;20041;-75
2022/10/04 12:43:20;;;;;;;10.13;8.18;;;;;;;19.63;56.00;101232.47;5032396;28;20491;-75
2022/10/04 12:46:06;;;;;;;9.35;8.55;;;;;;;19.98;55.52;101226.88;5032830;28;20104;-75
2022/10/04 12:48:47;;;;;;;9.10;7.07;;;;;;;20.26;55.66;101221.44;5043609;28;20032;-76
2022/10/04 12:51:30;;;;;;;7.15;6.32;;;;;;;20.09;54.14;101230.91;5043071;28;20115;-75
2022/10/04 12:54:07;;;;;;;9.75;8.65;;;;;;;20.77;53.30;101223.16;5035984;28;20445;-75
2022/10/04 12:56:49;;;;;;;12.82;9.32;;;;;;;21.38;51.63;101212.78;5043147;28;20037;-75
2022/10/04 12:59:29;;;;;;;;;;;;;;;21.40;50.24;101216.25;5043479;28;20136;-75
2022/10/04 13:02:16;;;;;;;8.82;8.02;;;;;;;21.58;50.21;101216.44;5037982;28;19916;-75
2022/10/04 13:04:48;;;;;;;8.23;7.53;;;;;;;21.84;49.33;101213.56;5038311;28;20158;-75
2022/10/04 13:07:19;;;;;;;;;;;;;;;21.81;49.23;101218.19;5041727;28;20475;-75
2022/10/04 13:10:07;;;;;;;9.73;6.00;;;;;;;21.05;50.06;101212.25;5040706;28;19923;-75
2022/10/04 13:12:38;;;;;;;6.82;6.22;;;;;;;20.31;52.00;101208.75;5008735;28;20296;-75
2022/10/04 13:15:22;;;;;;;6.40;5.78;;;;;;;19.98;53.86;101208.13;5039876;28;20060;-75
2022/10/04 13:18:28;;;;;;;9.15;6.57;;;;;;;19.60;54.34;101211.13;5037352;28;20040;-75
2022/10/04 13:21:07;;;;;;;7.95;5.22;;;;;;;19.29;55.09;101210.38;5033955;28;20745;-75
2022/10/04 13:23:39;;;;;;;7.60;6.15;;;;;;;19.16;55.99;101216.09;5038474;28;20152;-75